createdAt,value
2022-08-04T00:00:08.261Z,1005.80
2022-08-04T00:03:00.488Z,995.50
2022-08-04T00:05:42.791Z,981.17
2022-08-04T00:08:20.415Z,948.47
2022-08-04T00:10:51.235Z,986.63
2022-08-04T00:13:24.352Z,969.07
2022-08-04T00:15:54.664Z,974.00
2022-08-04T00:18:27.749Z,995.03
2022-08-04T00:21:00.547Z,985.27
2022-08-04T00:24:10.940Z,969.73
2022-08-04T00:26:19.362Z,956.40
2022-08-04T00:28:48.650Z,992.83
2022-08-04T00:31:17.554Z,961.77
2022-08-04T00:33:47.758Z,970.33
2022-08-04T00:36:19.198Z,1018.47
2022-08-04T00:38:47.170Z,1007.47
2022-08-04T00:41:23.623Z,996.50
2022-08-04T00:44:10.353Z,983.13
2022-08-04T00:47:04.335Z,996.13
2022-08-04T00:49:58.622Z,1020.67
2022-08-04T00:52:38.410Z,1002.67
2022-08-04T00:55:24.039Z,1008.83
2022-08-04T00:58:18.884Z,989.97
2022-08-04T01:00:54.931Z,940.10
2022-08-04T01:03:47.144Z,987.17
2022-08-04T01:06:25.899Z,990.33
2022-08-04T01:09:09.323Z,1029.77
2022-08-04T01:11:56.658Z,1016.53
2022-08-04T01:14:42.943Z,983.77
2022-08-04T01:17:21.086Z,1024.17
2022-08-04T01:20:05.989Z,1017.97
2022-08-04T01:23:05.430Z,959.30
2022-08-04T01:25:56.264Z,969.30
2022-08-04T01:28:45.684Z,1009.23
2022-08-04T01:31:21.490Z,1005.93
2022-08-04T01:33:58.417Z,1002.50
2022-08-04T01:36:35.825Z,985.73
2022-08-04T01:39:25.821Z,1015.87
2022-08-04T01:41:58.501Z,1025.40
2022-08-04T01:44:28.564Z,1014.53
2022-08-04T01:46:58.418Z,976.63
2022-08-04T01:49:32.136Z,1001.63
2022-08-04T01:52:11.789Z,1026.37
2022-08-04T01:54:43.419Z,1035.70
2022-08-04T01:57:36.964Z,1030.90
2022-08-04T02:00:02.219Z,978.47
2022-08-04T02:02:31.745Z,999.03
2022-08-04T02:04:59.808Z,1014.93
2022-08-04T02:07:44.812Z,1041.70
2022-08-04T02:10:24.763Z,1003.77
2022-08-04T02:13:02.661Z,993.40
2022-08-04T02:15:37.654Z,989.43
2022-08-04T02:18:19.492Z,1017.17
2022-08-04T02:20:49.523Z,973.43
2022-08-04T02:23:26.223Z,973.60
2022-08-04T02:25:58.325Z,1002.10
2022-08-04T02:28:34.448Z,982.23
2022-08-04T02:31:18.039Z,1028.40
2022-08-04T02:33:55.697Z,978.57
2022-08-04T02:36:32.602Z,988.67
2022-08-04T02:39:02.515Z,984.80
2022-08-04T02:41:31.939Z,1030.80
2022-08-04T02:44:01.996Z,949.33
2022-08-04T02:46:31.040Z,1020.87
2022-08-04T02:49:04.172Z,971.70
2022-08-04T02:51:35.424Z,1005.07
2022-08-04T02:54:06.155Z,996.13
2022-08-04T02:56:38.888Z,997.80
2022-08-04T02:59:09.559Z,1043.07
2022-08-04T03:01:38.052Z,1008.80
2022-08-04T03:04:50.998Z,1033.43
2022-08-04T03:08:00.742Z,988.63
2022-08-04T03:11:05.082Z,981.83
2022-08-04T03:14:02.227Z,1007.43
2022-08-04T03:17:10.750Z,1000.80
2022-08-04T03:20:08.929Z,974.57
2022-08-04T03:23:15.810Z,1000.60
2022-08-04T03:26:20.610Z,944.73
2022-08-04T03:29:16.133Z,1004.20
2022-08-04T03:32:29.088Z,1023.17
2022-08-04T03:35:22.781Z,1020.83
2022-08-04T03:38:31.604Z,963.97
2022-08-04T03:41:51.516Z,979.13
2022-08-04T03:45:03.163Z,1002.57
2022-08-04T03:48:13.040Z,952.33
2022-08-04T03:51:32.581Z,949.00
2022-08-04T03:54:33.889Z,1011.40
2022-08-04T03:57:35.965Z,993.20
2022-08-04T04:00:09.970Z,945.00
2022-08-04T04:03:26.760Z,1025.57
2022-08-04T04:06:20.229Z,1022.30
2022-08-04T04:09:33.997Z,965.10
2022-08-04T04:12:35.992Z,970.53
2022-08-04T04:15:15.536Z,986.37
2022-08-04T04:17:57.979Z,1012.50
2022-08-04T04:20:59.081Z,1035.27
2022-08-04T04:23:58.274Z,993.13
2022-08-04T04:26:56.785Z,987.77
2022-08-04T04:29:44.557Z,964.83
2022-08-04T04:32:34.100Z,1014.57
2022-08-04T04:35:16.826Z,974.60
2022-08-04T04:38:06.054Z,977.03
2022-08-04T04:40:51.752Z,1027.93
2022-08-04T04:43:51.820Z,1014.80
2022-08-04T04:46:33.159Z,1008.43
2022-08-04T04:49:09.963Z,966.67
2022-08-04T04:51:44.128Z,1028.23
2022-08-04T04:54:20.030Z,958.07
2022-08-04T04:56:59.027Z,1047.43
2022-08-04T04:59:32.874Z,1005.03
2022-08-04T05:02:24.426Z,1026.17
2022-08-04T05:05:16.319Z,980.87
2022-08-04T05:08:42.700Z,1022.23
2022-08-04T05:11:23.645Z,1044.27
2022-08-04T05:14:35.738Z,981.73
2022-08-04T05:16:47.719Z,1023.17
2022-08-04T05:19:23.659Z,1043.00
2022-08-04T05:21:58.082Z,1033.13
2022-08-04T05:24:28.814Z,1021.67
2022-08-04T05:27:10.145Z,1018.23
2022-08-04T05:29:47.563Z,1034.77
2022-08-04T05:32:18.179Z,1055.83
2022-08-04T05:34:53.402Z,1020.77
2022-08-04T05:37:23.882Z,1009.43
2022-08-04T05:39:59.428Z,1039.77
2022-08-04T05:42:28.266Z,996.57
2022-08-04T05:44:58.543Z,1011.53
2022-08-04T05:47:29.249Z,1005.57
2022-08-04T05:50:02.062Z,979.37
2022-08-04T05:52:32.478Z,1034.67
2022-08-04T05:55:01.588Z,1044.83
2022-08-04T05:57:30.480Z,1030.83
2022-08-04T06:00:14.840Z,1013.10
2022-08-04T06:02:54.609Z,996.70
2022-08-04T06:05:24.905Z,993.77
2022-08-04T06:08:12.838Z,984.70
2022-08-04T06:10:41.881Z,964.73
2022-08-04T06:13:49.571Z,985.53
2022-08-04T06:16:06.501Z,1007.07
2022-08-04T06:20:00.032Z,982.77
2022-08-04T06:21:25.711Z,1004.43
2022-08-04T06:24:02.434Z,1025.70
2022-08-04T06:26:35.659Z,969.90
2022-08-04T06:29:04.940Z,975.23
2022-08-04T06:32:27.364Z,939.03
2022-08-04T06:34:36.623Z,927.47
2022-08-04T06:37:05.220Z,938.40
2022-08-04T06:39:34.063Z,938.47
2022-08-04T06:42:19.281Z,942.43
2022-08-04T06:44:52.627Z,939.03
2022-08-04T06:47:23.685Z,902.07
2022-08-04T06:51:28.656Z,922.33
2022-08-04T06:52:42.429Z,955.07
2022-08-04T06:55:10.815Z,922.67
2022-08-04T06:57:41.568Z,884.73
2022-08-04T07:00:12.407Z,911.90
2022-08-04T07:02:45.668Z,928.20
2022-08-04T07:05:14.141Z,939.57
2022-08-04T07:07:58.255Z,926.60
2022-08-04T07:10:28.002Z,906.90
2022-08-04T07:12:57.667Z,885.43
2022-08-04T07:15:27.239Z,905.67
2022-08-04T07:18:00.198Z,907.60
2022-08-04T07:20:34.434Z,927.73
2022-08-04T07:23:05.088Z,934.03
2022-08-04T07:26:11.337Z,899.50
2022-08-04T07:28:23.223Z,866.60
2022-08-04T07:30:51.507Z,905.10
2022-08-04T07:33:22.144Z,901.33
2022-08-04T07:36:04.820Z,870.63
2022-08-04T07:38:48.787Z,853.37
2022-08-04T07:41:39.512Z,905.30
2022-08-04T07:44:08.682Z,846.87
2022-08-04T07:46:37.369Z,885.27
2022-08-04T07:49:08.035Z,849.07
2022-08-04T07:51:37.931Z,859.87
2022-08-04T07:54:07.801Z,860.77
2022-08-04T07:56:37.963Z,837.93
2022-08-04T07:59:06.644Z,817.10
2022-08-04T08:01:35.963Z,857.40
2022-08-04T08:04:08.205Z,846.27
2022-08-04T08:06:43.193Z,871.17
2022-08-04T08:09:14.573Z,841.73
2022-08-04T08:12:35.442Z,835.37
2022-08-04T08:14:32.253Z,863.70
2022-08-04T08:17:02.462Z,832.00
2022-08-04T08:19:30.826Z,827.60
2022-08-04T08:22:01.447Z,860.07
2022-08-04T08:24:31.239Z,834.17
2022-08-04T08:27:00.102Z,778.80
2022-08-04T08:29:29.915Z,843.80
2022-08-04T08:32:05.410Z,835.67
2022-08-04T08:34:35.675Z,845.37
2022-08-04T08:37:13.499Z,816.63
2022-08-04T08:39:48.650Z,805.70
2022-08-04T08:42:30.414Z,824.63
2022-08-04T08:45:25.985Z,814.50
2022-08-04T08:48:22.541Z,798.13
2022-08-04T08:51:25.030Z,819.63
2022-08-04T08:54:09.480Z,782.10
2022-08-04T08:56:45.994Z,815.03
2022-08-04T08:59:29.014Z,782.50
2022-08-04T09:02:17.161Z,790.97
2022-08-04T09:05:18.860Z,844.57
2022-08-04T09:08:01.724Z,787.17
2022-08-04T09:10:40.278Z,808.00
2022-08-04T09:13:24.459Z,813.47
2022-08-04T09:16:03.811Z,785.33
2022-08-04T09:18:43.331Z,901.83
2022-08-04T09:21:18.536Z,854.60
2022-08-04T09:23:54.770Z,894.67
2022-08-04T09:26:33.096Z,846.30
2022-08-04T09:29:08.282Z,878.90
2022-08-04T09:32:07.211Z,844.90
2022-08-04T09:34:44.702Z,835.70
2022-08-04T09:37:18.731Z,835.77
2022-08-04T09:39:57.010Z,850.73
2022-08-04T09:42:38.975Z,849.33
2022-08-04T09:45:19.530Z,819.80
2022-08-04T09:47:59.720Z,833.73
2022-08-04T09:50:38.572Z,847.17
2022-08-04T09:53:30.620Z,842.00
2022-08-04T09:56:09.550Z,860.97
2022-08-04T09:58:50.916Z,857.33
2022-08-04T10:01:23.568Z,803.47
2022-08-04T10:03:54.003Z,857.57
2022-08-04T10:06:43.886Z,818.77
2022-08-04T10:09:32.078Z,804.67
2022-08-04T10:12:22.971Z,852.13
2022-08-04T10:15:00.476Z,798.43
2022-08-04T10:17:43.632Z,815.47
2022-08-04T10:20:44.339Z,859.27
2022-08-04T10:23:28.410Z,768.67
2022-08-04T10:26:08.576Z,838.73
2022-08-04T10:28:43.255Z,804.67
2022-08-04T10:31:20.298Z,813.87
2022-08-04T10:33:53.837Z,820.60
2022-08-04T10:36:27.684Z,819.30
2022-08-04T10:39:02.379Z,818.97
2022-08-04T10:41:37.361Z,798.50
2022-08-04T10:44:16.033Z,793.33
2022-08-04T10:46:52.159Z,832.50
2022-08-04T10:49:24.766Z,816.43
2022-08-04T10:51:59.598Z,812.90
2022-08-04T10:54:33.524Z,831.77
2022-08-04T10:57:07.810Z,814.87
2022-08-04T10:59:41.861Z,789.80
2022-08-04T11:02:26.997Z,820.70
2022-08-04T11:05:00.669Z,784.53
2022-08-04T11:07:33.726Z,804.03
2022-08-04T11:10:02.661Z,826.50
2022-08-04T11:12:32.294Z,787.20
2022-08-04T11:15:07.664Z,805.90
2022-08-04T11:17:41.755Z,782.43
2022-08-04T11:20:34.761Z,799.50
2022-08-04T11:23:09.243Z,784.57
2022-08-04T11:25:49.724Z,808.77
2022-08-04T11:28:26.652Z,805.33
2022-08-04T11:31:00.267Z,819.17
2022-08-04T11:33:38.568Z,765.50
2022-08-04T11:36:21.221Z,783.00
2022-08-04T11:38:54.593Z,789.97
2022-08-04T11:41:42.163Z,768.40
2022-08-04T11:44:18.163Z,791.67
2022-08-04T11:46:51.596Z,807.37
2022-08-04T11:49:30.503Z,753.27
2022-08-04T11:52:01.896Z,795.10
2022-08-04T11:54:31.950Z,763.63
2022-08-04T11:57:00.086Z,781.13
2022-08-04T11:59:29.376Z,762.17
2022-08-04T12:02:20.989Z,724.43
2022-08-04T12:04:57.638Z,768.67
2022-08-04T12:07:42.167Z,751.73
2022-08-04T12:10:42.246Z,741.87
2022-08-04T12:13:21.811Z,761.17
2022-08-04T12:15:58.818Z,747.57
2022-08-04T12:18:34.111Z,717.97
2022-08-04T12:21:09.852Z,729.27
2022-08-04T12:23:41.775Z,755.50
2022-08-04T12:26:15.729Z,764.57
2022-08-04T12:31:45.708Z,730.53
2022-08-04T12:34:18.674Z,740.77
2022-08-04T12:36:57.247Z,761.80
2022-08-04T12:39:28.109Z,729.17
2022-08-04T12:42:03.483Z,727.13
2022-08-04T12:44:38.243Z,730.80
2022-08-04T12:47:26.835Z,748.00
2022-08-04T12:50:01.733Z,746.50
2022-08-04T12:52:59.281Z,749.60
2022-08-04T12:55:25.080Z,739.97
2022-08-04T12:57:54.662Z,739.13
2022-08-04T13:00:31.203Z,702.27
2022-08-04T13:03:10.022Z,766.60
2022-08-04T13:05:41.210Z,718.60
2022-08-04T13:08:12.398Z,760.03
2022-08-04T13:10:42.874Z,700.37
2022-08-04T13:13:16.895Z,749.37
2022-08-04T13:15:56.735Z,697.77
2022-08-04T13:18:29.908Z,735.27
2022-08-04T13:24:10.276Z,727.87
2022-08-04T13:26:54.488Z,735.27
2022-08-04T13:29:58.081Z,743.70
2022-08-04T13:30:25.147Z,769.77
2022-08-04T13:32:18.449Z,731.77
2022-08-04T13:34:52.687Z,714.77
2022-08-04T13:37:23.698Z,717.67
2022-08-04T13:39:55.999Z,721.93
2022-08-04T13:42:26.534Z,741.00
2022-08-04T13:44:57.167Z,714.93
2022-08-04T13:47:29.148Z,716.10
2022-08-04T13:50:17.502Z,731.70
2022-08-04T13:52:46.343Z,730.77
2022-08-04T13:55:28.013Z,755.40
2022-08-04T13:58:03.366Z,718.97
2022-08-04T14:00:50.867Z,716.37
2022-08-04T14:03:26.474Z,739.90
2022-08-04T14:06:10.640Z,692.10
2022-08-04T14:08:47.632Z,701.03
2022-08-04T14:12:08.951Z,769.07
2022-08-04T14:14:19.067Z,718.40
2022-08-04T14:17:03.163Z,691.77
2022-08-04T14:19:48.719Z,697.93
2022-08-04T14:22:31.368Z,710.37
2022-08-04T14:25:00.039Z,731.73
2022-08-04T14:27:31.452Z,752.10
2022-08-04T14:29:59.662Z,699.07
2022-08-04T14:32:27.902Z,735.97
2022-08-04T14:34:56.112Z,726.47
2022-08-04T14:37:24.434Z,723.47
2022-08-04T14:40:19.113Z,717.50
2022-08-04T14:42:54.727Z,741.23
2022-08-04T14:45:34.761Z,719.77
2022-08-04T14:48:03.926Z,743.40
2022-08-04T14:50:37.959Z,737.20
2022-08-04T14:53:08.259Z,749.67
2022-08-04T14:55:36.912Z,735.20
2022-08-04T14:58:36.228Z,741.00
2022-08-04T15:00:58.991Z,753.53
2022-08-04T15:03:28.620Z,721.57
2022-08-04T15:06:05.122Z,744.30
2022-08-04T15:08:34.925Z,746.47
2022-08-04T15:11:03.703Z,732.67
2022-08-04T15:13:33.995Z,746.37
2022-08-04T15:16:08.142Z,714.70
2022-08-04T15:18:39.160Z,716.50
2022-08-04T15:21:08.850Z,718.83
2022-08-04T15:23:39.630Z,737.70
2022-08-04T15:26:12.696Z,731.63
2022-08-04T15:28:47.139Z,702.77
2022-08-04T15:32:04.594Z,682.13
2022-08-04T15:34:07.756Z,727.60
2022-08-04T15:36:43.309Z,759.90
2022-08-04T15:39:23.337Z,720.63
2022-08-04T15:41:57.887Z,742.33
2022-08-04T15:45:14.150Z,736.20
2022-08-04T15:47:49.896Z,740.60
2022-08-04T15:50:28.390Z,770.30
2022-08-04T15:53:10.270Z,732.03
2022-08-04T15:55:42.157Z,735.50
2022-08-04T15:58:12.290Z,744.73
2022-08-04T16:01:15.890Z,722.93
2022-08-04T16:03:58.415Z,757.73
2022-08-04T16:06:47.223Z,734.00
2022-08-04T16:09:45.296Z,762.43
2022-08-04T16:12:56.524Z,754.60
2022-08-04T16:15:46.752Z,755.43
2022-08-04T16:18:26.520Z,752.93
2022-08-04T16:20:57.240Z,798.70
2022-08-04T16:23:59.223Z,771.47
2022-08-04T16:26:54.610Z,738.93
2022-08-04T16:29:38.508Z,796.23
2022-08-04T16:32:15.145Z,744.27
2022-08-04T16:34:55.008Z,739.90
2022-08-04T16:37:26.450Z,766.83
2022-08-04T16:40:29.815Z,812.17
2022-08-04T16:43:00.491Z,764.80
2022-08-04T16:45:49.614Z,746.60
2022-08-04T16:48:19.309Z,767.70
2022-08-04T16:50:50.256Z,806.60
2022-08-04T16:54:02.677Z,769.73
2022-08-04T16:56:09.978Z,774.67
2022-08-04T16:58:38.265Z,774.20
2022-08-04T17:01:33.722Z,755.93
2022-08-04T17:04:06.311Z,793.53
2022-08-04T17:06:36.332Z,745.40
2022-08-04T17:09:07.198Z,787.83
2022-08-04T17:11:35.274Z,783.10
2022-08-04T17:14:05.785Z,793.60
2022-08-04T17:16:38.105Z,821.47
2022-08-04T17:19:24.251Z,798.80
2022-08-04T17:22:02.880Z,844.37
2022-08-04T17:24:34.749Z,869.60
2022-08-04T17:27:04.561Z,859.80
2022-08-04T17:29:51.128Z,855.03
2022-08-04T17:32:23.091Z,877.63
2022-08-04T17:34:52.391Z,875.30
2022-08-04T17:37:52.007Z,853.90
2022-08-04T17:40:14.049Z,870.13
2022-08-04T17:42:44.992Z,891.23
2022-08-04T17:45:51.382Z,898.93
2022-08-04T17:48:09.401Z,930.27
2022-08-04T17:50:43.272Z,886.33
2022-08-04T17:53:12.958Z,896.60
2022-08-04T17:55:59.763Z,925.10
2022-08-04T17:58:34.847Z,931.10
2022-08-04T18:03:54.535Z,889.53
2022-08-04T18:06:25.528Z,931.27
2022-08-04T18:08:57.996Z,902.80
2022-08-04T18:11:41.309Z,903.73
2022-08-04T18:14:11.010Z,913.40
2022-08-04T18:16:44.731Z,902.00
2022-08-04T18:19:15.646Z,953.47
2022-08-04T18:22:00.592Z,890.73
2022-08-04T18:24:36.113Z,912.40
2022-08-04T18:27:20.590Z,907.97
2022-08-04T18:29:56.533Z,861.53
2022-08-04T18:32:36.606Z,926.07
2022-08-04T18:35:07.253Z,939.47
2022-08-04T18:38:05.833Z,931.03
2022-08-04T18:40:29.784Z,920.93
2022-08-04T18:43:03.730Z,924.30
2022-08-04T18:45:34.590Z,949.33
2022-08-04T18:48:04.292Z,947.37
2022-08-04T18:51:09.570Z,932.70
2022-08-04T18:53:35.427Z,935.10
2022-08-04T18:56:06.045Z,927.63
2022-08-04T18:58:34.668Z,915.83
2022-08-04T19:01:02.620Z,905.60
2022-08-04T19:03:44.058Z,914.90
2022-08-04T19:06:15.900Z,953.87
2022-08-04T19:08:45.066Z,994.03
2022-08-04T19:11:38.618Z,952.07
2022-08-04T19:14:03.624Z,949.60
2022-08-04T19:16:33.938Z,966.47
2022-08-04T19:19:05.613Z,977.03
2022-08-04T19:22:00.835Z,977.33
2022-08-04T19:24:32.516Z,972.47
2022-08-04T19:27:06.567Z,980.07
2022-08-04T19:29:38.005Z,973.67
2022-08-04T19:32:13.779Z,996.57
2022-08-04T19:34:46.364Z,917.00
2022-08-04T19:37:57.155Z,1015.33
2022-08-04T19:40:06.303Z,995.17
2022-08-04T19:42:34.763Z,996.00
2022-08-04T19:45:02.821Z,959.77
2022-08-04T19:48:12.320Z,990.13
2022-08-04T19:50:19.080Z,1003.60
2022-08-04T19:52:52.010Z,1025.33
2022-08-04T19:55:22.446Z,975.30
2022-08-04T19:57:51.164Z,1014.10
2022-08-04T20:00:33.888Z,1011.10
2022-08-04T20:03:02.761Z,1012.47
2022-08-04T20:05:52.506Z,984.80
2022-08-04T20:08:20.457Z,986.70
2022-08-04T20:10:52.020Z,983.93
2022-08-04T20:13:20.954Z,961.57
2022-08-04T20:15:57.415Z,1009.40
2022-08-04T20:18:35.580Z,1035.37
2022-08-04T20:21:19.393Z,995.97
2022-08-04T20:23:53.652Z,998.73
2022-08-04T20:26:21.898Z,1026.60
2022-08-04T20:28:51.911Z,1008.80
2022-08-04T20:31:20.630Z,1031.80
2022-08-04T20:33:55.017Z,1021.37
2022-08-04T20:36:23.427Z,1019.40
2022-08-04T20:38:54.571Z,1019.77
2022-08-04T20:41:23.240Z,1011.53
2022-08-04T20:43:51.331Z,989.10
2022-08-04T20:46:28.575Z,1001.27
2022-08-04T20:48:58.152Z,1040.20
2022-08-04T20:51:31.979Z,1049.23
2022-08-04T20:54:16.207Z,1015.57
2022-08-04T20:56:51.130Z,1017.03
2022-08-04T20:59:19.614Z,1042.97
2022-08-04T21:01:48.975Z,1043.13
2022-08-04T21:04:32.991Z,999.93
2022-08-04T21:07:03.767Z,1043.13
2022-08-04T21:09:38.417Z,1020.70
2022-08-04T21:12:27.207Z,1007.43
2022-08-04T21:14:59.965Z,1028.47
2022-08-04T21:17:59.223Z,1062.37
2022-08-04T21:23:07.554Z,1062.10
2022-08-04T21:25:42.739Z,1029.80
2022-08-04T21:28:11.804Z,1012.13
2022-08-04T21:30:53.906Z,1058.33
2022-08-04T21:33:23.769Z,1044.43
2022-08-04T21:35:53.899Z,1041.27
2022-08-04T21:38:25.129Z,1053.10
2022-08-04T21:40:58.937Z,1006.23
2022-08-04T21:43:30.057Z,1057.63
2022-08-04T21:46:11.362Z,1039.50
2022-08-04T21:48:42.424Z,1065.60
2022-08-04T21:51:57.333Z,1077.07
2022-08-04T21:54:04.919Z,1036.83
2022-08-04T21:56:35.092Z,1039.30
2022-08-04T21:59:07.260Z,1082.80
2022-08-04T22:01:50.443Z,1047.07
2022-08-04T22:04:20.757Z,1084.00
2022-08-04T22:06:52.436Z,1046.17
2022-08-04T22:09:22.304Z,1038.03
2022-08-04T22:11:52.338Z,1103.83
2022-08-04T22:14:29.716Z,1043.07
2022-08-04T22:17:02.812Z,1073.57
2022-08-04T22:19:40.282Z,1068.47
2022-08-04T22:22:26.157Z,1034.00
2022-08-04T22:24:58.904Z,1033.47
2022-08-04T22:27:47.547Z,1063.00
2022-08-04T22:30:17.763Z,1049.60
2022-08-04T22:32:46.506Z,1035.77
2022-08-04T22:35:36.459Z,1055.23
2022-08-04T22:38:06.219Z,1027.27
2022-08-04T22:40:50.089Z,1028.00
2022-08-04T22:43:32.950Z,1065.73
2022-08-04T22:46:03.751Z,1029.93
2022-08-04T22:48:33.531Z,1057.83
2022-08-04T22:51:01.570Z,1034.30
2022-08-04T22:53:31.581Z,1056.03
2022-08-04T22:56:09.371Z,1042.53
2022-08-04T22:58:44.812Z,1043.33
2022-08-04T23:01:15.294Z,1109.17
2022-08-04T23:03:50.920Z,1070.40
2022-08-04T23:06:24.992Z,1065.37
2022-08-04T23:08:53.247Z,1065.57
2022-08-04T23:11:21.668Z,1086.03
2022-08-04T23:13:51.249Z,1084.50
2022-08-04T23:16:21.103Z,1072.73
2022-08-04T23:18:52.730Z,1089.33
2022-08-04T23:21:24.296Z,1058.73
2022-08-04T23:24:00.638Z,1073.43
2022-08-04T23:26:30.653Z,1081.23
2022-08-04T23:29:00.218Z,1101.00
2022-08-04T23:31:40.719Z,1057.43
2022-08-04T23:34:12.335Z,1107.50
2022-08-04T23:36:40.848Z,1055.50
2022-08-04T23:39:11.100Z,1047.13
2022-08-04T23:41:54.790Z,1040.07
2022-08-04T23:44:28.135Z,1040.93
2022-08-04T23:47:00.412Z,1063.97
2022-08-04T23:49:43.628Z,1044.43
2022-08-04T23:52:23.411Z,1068.40
2022-08-04T23:54:58.429Z,1063.73
2022-08-04T23:57:31.277Z,1052.03
